createdAt,value
2022-11-20T00:05:05.830Z,25
2022-11-20T00:10:44.576Z,25
2022-11-20T00:16:07.000Z,25
2022-11-20T00:21:44.528Z,25
2022-11-20T00:27:22.596Z,25
2022-11-20T00:33:04.224Z,25
2022-11-20T00:38:26.967Z,25
2022-11-20T00:43:49.500Z,25
2022-11-20T00:48:55.636Z,25
2022-11-20T00:54:17.735Z,25.1
2022-11-20T00:59:26.581Z,25.1
2022-11-20T01:04:49.282Z,25.1
2022-11-20T01:09:56.913Z,25.1
2022-11-20T01:15:38.719Z,25.1
2022-11-20T01:21:16.006Z,25.1
2022-11-20T01:26:52.717Z,25.1
2022-11-20T01:32:15.221Z,25.1
2022-11-20T01:37:37.228Z,25.1
2022-11-20T01:42:43.808Z,25.1
2022-11-20T01:47:50.297Z,25.1
2022-11-20T01:53:11.516Z,25.1
2022-11-20T01:58:49.250Z,25.1
2022-11-20T02:03:56.746Z,25.1
2022-11-20T02:09:18.492Z,25.2
2022-11-20T02:14:46.944Z,25.2
2022-11-20T02:20:09.771Z,25.2
2022-11-20T02:25:46.765Z,25.2
2022-11-20T02:30:52.456Z,25.2
2022-11-20T02:36:29.479Z,25.2
2022-11-20T02:42:06.808Z,25.3
2022-11-20T02:47:42.456Z,25.2
2022-11-20T02:52:49.894Z,25.3
2022-11-20T02:58:25.195Z,25.3
2022-11-20T03:03:46.157Z,25.3
2022-11-20T03:09:07.634Z,25.3
2022-11-20T03:14:28.882Z,25.3
2022-11-20T03:19:40.803Z,25.3
2022-11-20T03:24:47.276Z,25.3
2022-11-20T03:30:29.351Z,25.3
2022-11-20T03:36:07.382Z,25.3
2022-11-20T03:41:29.621Z,25.3
2022-11-20T03:46:50.334Z,25.3
2022-11-20T03:52:32.504Z,25.3
2022-11-20T03:57:38.778Z,25.3
2022-11-20T04:02:30.071Z,25.4
2022-11-20T04:08:07.394Z,25.3
2022-11-20T04:13:44.456Z,25.4
2022-11-20T04:19:06.548Z,25.4
2022-11-20T04:24:50.683Z,25.4
2022-11-20T04:30:27.670Z,25.4
2022-11-20T04:35:32.938Z,25.4
2022-11-20T04:41:10.174Z,25.4
2022-11-20T04:46:47.721Z,25.4
2022-11-20T04:52:24.962Z,25.4
2022-11-20T04:57:48.755Z,25.4
2022-11-20T05:02:56.440Z,25.4
2022-11-20T05:08:18.613Z,25.4
2022-11-20T05:13:56.047Z,25.4
2022-11-20T05:19:18.985Z,25.4
2022-11-20T05:24:42.116Z,25.4
2022-11-20T05:30:21.213Z,25.4
2022-11-20T05:35:58.580Z,25.4
2022-11-20T05:41:37.825Z,25.4
2022-11-20T05:47:02.929Z,25.4
2022-11-20T05:52:39.961Z,25.5
2022-11-20T05:58:18.996Z,25.3
2022-11-20T06:03:55.760Z,25.1
2022-11-20T06:09:33.759Z,25
2022-11-20T06:14:55.164Z,25
2022-11-20T06:20:17.473Z,24.9
2022-11-20T06:26:00.913Z,24.9
2022-11-20T06:31:42.809Z,24.9
2022-11-20T06:37:24.153Z,24.9
2022-11-20T06:42:31.704Z,24.9
2022-11-20T06:48:08.836Z,24.9
2022-11-20T06:53:49.743Z,24.9
2022-11-20T06:59:32.268Z,24.9
2022-11-20T07:05:16.489Z,24.8
2022-11-20T07:10:54.285Z,24.5
2022-11-20T07:16:31.363Z,24.3
2022-11-20T07:22:14.807Z,24.2
2022-11-20T07:27:53.372Z,24.1
2022-11-20T07:33:32.775Z,24.1
2022-11-20T07:38:54.263Z,24.1
2022-11-20T07:44:00.927Z,24
2022-11-20T07:49:38.156Z,23.9
2022-11-20T07:55:15.926Z,23.9
2022-11-20T08:00:53.003Z,23.9
2022-11-20T08:06:17.045Z,23.9
2022-11-20T08:11:42.482Z,23.9
2022-11-20T08:16:52.442Z,23.9
2022-11-20T08:23:04.885Z,23.8
2022-11-20T08:28:21.124Z,23.8
2022-11-20T08:33:58.908Z,23.8
2022-11-20T08:39:40.505Z,23.6
2022-11-20T08:45:24.419Z,23.5
2022-11-20T08:51:02.097Z,23.4
2022-11-20T08:56:39.138Z,23.4
2022-11-20T09:03:32.819Z,23.4
2022-11-20T09:09:10.749Z,23.5
2022-11-20T09:14:55.218Z,23.6
2022-11-20T09:20:35.315Z,23.7
2022-11-20T09:26:13.858Z,23.7
2022-11-20T09:31:36.263Z,23.6
2022-11-20T09:37:00.271Z,23.6
2022-11-20T09:42:39.914Z,23.6
2022-11-20T09:48:21.879Z,23.6
2022-11-20T09:54:03.112Z,23.6
2022-11-20T09:59:42.907Z,30.1
2022-11-20T10:05:20.442Z,32.6
2022-11-20T10:11:33.303Z,37.4
2022-11-20T10:17:14.167Z,40.1
2022-11-20T10:22:52.287Z,40.6
2022-11-20T10:28:31.058Z,40.3
2022-11-20T10:34:38.953Z,39.8
2022-11-20T10:40:17.280Z,37.1
2022-11-20T10:45:59.796Z,36.9
2022-11-20T10:51:27.285Z,33.3
2022-11-20T10:56:50.278Z,31.8
2022-11-20T11:02:13.275Z,30.9
2022-11-20T11:07:51.316Z,30.3
2022-11-20T11:13:13.754Z,29.8
2022-11-20T11:18:36.098Z,29.2
2022-11-20T11:24:08.327Z,28.4
2022-11-20T11:29:49.459Z,27.9
2022-11-20T11:35:27.250Z,27.6
2022-11-20T11:41:31.217Z,27.3
2022-11-20T11:47:10.981Z,27.1
2022-11-20T11:52:34.439Z,26.8
2022-11-20T11:57:31.089Z,26.6
2022-11-20T12:02:56.356Z,26.4
2022-11-20T12:08:50.154Z,26.3
2022-11-20T12:14:12.989Z,26.2
2022-11-20T12:19:35.113Z,26.1
2022-11-20T12:25:13.078Z,25.9
2022-11-20T12:30:50.611Z,25.8
2022-11-20T12:36:34.041Z,25.6
2022-11-20T12:41:56.483Z,25.4
2022-11-20T12:46:47.935Z,25.4
2022-11-20T12:52:53.187Z,25.3
2022-11-20T12:58:30.914Z,25.2
2022-11-20T13:04:10.489Z,25.1
2022-11-20T13:09:32.023Z,25.1
2022-11-20T13:15:15.166Z,25.1
2022-11-20T13:20:52.302Z,25
2022-11-20T13:26:35.155Z,24.9
2022-11-20T13:32:12.386Z,24.9
2022-11-20T13:37:50.000Z,24.9
2022-11-20T13:43:27.582Z,24.9
2022-11-20T13:49:10.523Z,24.9
2022-11-20T13:54:49.448Z,24.9
2022-11-20T14:00:28.402Z,24.9
2022-11-20T14:06:34.853Z,24.8
2022-11-20T14:12:12.934Z,24.8
2022-11-20T14:17:57.375Z,24.7
2022-11-20T14:23:19.399Z,24.6
2022-11-20T14:28:57.420Z,24.7
2022-11-20T14:34:35.058Z,24.7
2022-11-20T14:40:12.668Z,24.6
2022-11-20T14:45:50.744Z,24.6
2022-11-20T14:51:32.315Z,24.6
2022-11-20T14:57:09.562Z,24.6
2022-11-20T15:02:32.149Z,24.6
2022-11-20T15:08:14.364Z,24.6
2022-11-20T15:13:39.949Z,24.6
2022-11-20T15:19:17.541Z,24.6
2022-11-20T15:24:24.052Z,24.6
2022-11-20T15:30:01.811Z,24.6
2022-11-20T15:35:39.968Z,24.6
2022-11-20T15:41:21.224Z,24.6
2022-11-20T15:46:58.487Z,24.6
2022-11-20T15:52:26.277Z,24.6
2022-11-20T15:57:23.497Z,24.6
2022-11-20T16:03:08.228Z,24.6
2022-11-20T16:08:30.702Z,24.6
2022-11-20T16:13:52.720Z,24.4
2022-11-20T16:19:31.156Z,24
2022-11-20T16:25:11.358Z,23.8
2022-11-20T16:30:49.204Z,23.6
2022-11-20T16:36:11.642Z,23.6
2022-11-20T16:41:37.794Z,23.6
2022-11-20T16:47:05.318Z,23.5
2022-11-20T16:52:27.752Z,23.5
2022-11-20T16:57:50.358Z,23.5
2022-11-20T17:03:28.575Z,23.5
2022-11-20T17:09:06.776Z,23.5
2022-11-20T17:14:45.986Z,23.5
2022-11-20T17:20:26.276Z,23.5
2022-11-20T17:25:38.231Z,23.5
2022-11-20T17:31:21.238Z,23.5
2022-11-20T17:37:02.037Z,23.5
2022-11-20T17:42:26.054Z,23.5
2022-11-20T17:48:07.640Z,23.6
2022-11-20T17:53:46.271Z,23.6
2022-11-20T17:59:25.391Z,23.6
2022-11-20T18:05:10.289Z,23.6
2022-11-20T18:10:49.653Z,23.6
2022-11-20T18:16:27.874Z,23.6
2022-11-20T18:22:26.876Z,23.6
2022-11-20T18:27:52.019Z,23.6
2022-11-20T18:33:43.547Z,23.7
2022-11-20T18:39:05.567Z,23.7
2022-11-20T18:44:44.329Z,23.7
2022-11-20T18:49:51.845Z,23.8
2022-11-20T18:55:13.662Z,23.8
2022-11-20T19:00:59.432Z,23.8
2022-11-20T19:06:40.059Z,23.8
2022-11-20T19:12:03.775Z,23.8
2022-11-20T19:17:43.326Z,23.9
2022-11-20T19:28:29.406Z,24.1
2022-11-20T19:34:14.000Z,24
2022-11-20T19:39:58.490Z,23.9
2022-11-20T19:45:21.668Z,23.9
2022-11-20T19:51:14.756Z,23.9
2022-11-20T19:56:39.702Z,23.9
2022-11-20T20:02:10.057Z,23.9
2022-11-20T20:07:48.178Z,23.9
2022-11-20T20:13:13.609Z,23.9
2022-11-20T20:18:36.717Z,23.9
2022-11-20T20:24:13.880Z,23.9
2022-11-20T20:29:36.366Z,23.9
2022-11-20T20:34:58.330Z,23.9
2022-11-20T20:40:04.972Z,23.9
2022-11-20T20:45:11.876Z,23.9
2022-11-20T20:50:50.009Z,23.9
2022-11-20T20:56:14.361Z,23.9
2022-11-20T21:01:37.621Z,23.8
2022-11-20T21:07:00.192Z,23.6
2022-11-20T21:12:25.018Z,23.4
2022-11-20T21:18:05.025Z,23.3
2022-11-20T21:23:42.374Z,23.1
2022-11-20T21:29:08.696Z,23.1
2022-11-20T21:34:30.842Z,23
2022-11-20T21:39:55.181Z,23
2022-11-20T21:46:08.627Z,22.9
2022-11-20T21:51:46.429Z,22.9
2022-11-20T21:57:10.132Z,22.9
2022-11-20T22:02:48.531Z,22.9
2022-11-20T22:08:26.340Z,22.9
2022-11-20T22:14:03.847Z,22.9
2022-11-20T22:20:08.120Z,22.9
2022-11-20T22:25:29.980Z,22.9
2022-11-20T22:30:55.023Z,22.9
2022-11-20T22:36:21.820Z,22.9
2022-11-20T22:42:03.081Z,22.9
2022-11-20T22:47:27.961Z,22.8
2022-11-20T22:53:05.074Z,22.8
2022-11-20T22:58:42.747Z,22.8
2022-11-20T23:04:19.513Z,22.8
2022-11-20T23:09:57.236Z,22.8
2022-11-20T23:15:35.619Z,22.8
2022-11-20T23:21:13.408Z,22.8
2022-11-20T23:26:50.480Z,22.8
2022-11-20T23:32:17.349Z,22.8
2022-11-20T23:37:54.568Z,22.8
2022-11-20T23:43:32.176Z,22.8
2022-11-20T23:49:09.469Z,22.8
2022-11-20T23:54:38.056Z,22.8
